Time;durP1;ratioP1;P1;durP2;ratioP2;P2;SDS_P1;SDS_P2;PMS_P1;PMS_P2;Temp;Humidity;BMP_temperature;BMP_pressure;BME280_temperature;BME280_humidity;BME280_pressure;Samples;Min_cycle;Max_cycle;Signal;HPM_P1;HPM_P2
2022/01/28 00:00:37;;;;;;;10.63;3.17;;;5.10;35.50;;;;;;5080299;28;20421;-55
2022/01/28 00:03:08;;;;;;;11.20;1.93;;;5.10;99.90;;;;;;5090938;28;20422;-55
2022/01/28 00:05:36;;;;;;;13.93;3.33;;;5.10;99.90;;;;;;5091094;28;20413;-54
2022/01/28 00:08:03;;;;;;;8.50;2.13;;;5.10;99.90;;;;;;5092398;28;20453;-55
2022/01/28 00:10:29;;;;;;;6.70;2.13;;;5.20;99.90;;;;;;5084683;28;20997;-55
2022/01/28 00:39:26;;;;;;;24.97;3.70;;;5.00;99.90;;;;;;5094328;28;21150;-55
2022/01/28 00:41:51;;;;;;;21.87;4.30;;;5.00;99.90;;;;;;5092106;28;20414;-55
2022/01/28 00:44:17;;;;;;;16.63;2.50;;;5.00;1.00;;;;;;5090964;28;20433;-55
2022/01/28 00:46:42;;;;;;;12.03;2.60;;;5.10;99.90;;;;;;5087975;28;20733;-55
2022/01/28 00:49:08;;;;;;;21.97;2.90;;;5.00;99.90;;;;;;5094015;28;20203;-55
2022/01/28 00:51:34;;;;;;;22.73;2.77;;;5.00;99.90;;;;;;5094082;28;20183;-55
2022/01/28 00:53:59;;;;;;;19.03;3.27;;;4.90;99.90;;;;;;5093886;28;20180;-55
2022/01/28 00:56:25;;;;;;;14.17;2.40;;;5.00;1.00;;;;;;5094067;28;20271;-55
2022/01/28 00:58:50;;;;;;;18.90;2.60;;;5.00;99.90;;;;;;5094159;28;20389;-55
2022/01/28 01:01:16;;;;;;;18.63;3.07;;;5.00;99.90;;;;;;5080260;28;20199;-54
2022/01/28 01:03:42;;;;;;;17.90;3.33;;;4.90;99.90;;;;;;5087216;28;20257;-55
2022/01/28 01:06:07;;;;;;;14.23;3.17;;;5.00;99.90;;;;;;5075713;28;20195;-54
2022/01/28 01:08:33;;;;;;;10.03;2.93;;;5.00;99.90;;;;;;5093473;28;20211;-54
2022/01/28 01:10:58;;;;;;;12.40;2.70;;;5.00;99.90;;;;;;5091621;28;20211;-54
2022/01/28 01:13:24;;;;;;;5.97;1.93;;;5.00;99.90;;;;;;5093576;28;20530;-55
2022/01/28 01:15:54;;;;;;;32.13;3.00;;;5.00;36.10;;;;;;5093579;28;20895;-55
2022/01/28 01:18:25;;;;;;;17.87;2.63;;;5.00;62.90;;;;;;5093180;28;20187;-54
2022/01/28 01:21:08;;;;;;;19.53;3.17;;;5.00;99.90;;;;;;5089580;28;20952;-55
2022/01/28 01:23:37;;;;;;;10.30;2.70;;;4.90;99.90;;;;;;5086107;28;20433;-55
2022/01/28 01:28:34;;;;;;;22.43;2.30;;;5.00;1.00;;;;;;5085539;28;20428;-54
2022/01/28 01:31:02;;;;;;;16.63;2.57;;;5.00;99.90;;;;;;5093444;28;20810;-55
2022/01/28 01:33:31;;;;;;;30.73;4.17;;;5.00;1.00;;;;;;5084965;28;20410;-55
2022/01/28 01:36:03;;;;;;;18.00;2.80;;;5.00;1.00;;;;;;5075112;28;20458;-55
2022/01/28 01:38:33;;;;;;;13.57;2.40;;;4.90;1.00;;;;;;5079269;28;20467;-55
2022/01/28 01:41:01;;;;;;;17.23;3.80;;;4.90;1.00;;;;;;5091236;28;20420;-55
2022/01/28 01:43:41;;;;;;;15.77;3.07;;;5.00;99.90;;;;;;5093230;28;20405;-55
2022/01/28 01:46:18;;;;;;;6.97;1.83;;;4.90;99.90;;;;;;5074752;28;20437;-55
2022/01/28 01:54:13;;;;;;;9.87;2.10;;;4.90;99.90;;;;;;5092130;28;20506;-54
2022/01/28 01:56:40;;;;;;;4.77;2.97;;;4.80;99.90;;;;;;5092867;28;20417;-55
2022/01/28 01:59:07;;;;;;;8.43;2.47;;;4.80;99.90;;;;;;5092672;28;20558;-54
2022/01/28 02:01:33;;;;;;;17.27;3.57;;;4.80;99.90;;;;;;5089127;28;20414;-55
2022/01/28 02:03:59;;;;;;;11.27;2.13;;;4.80;99.90;;;;;;5092540;28;20412;-54
2022/01/28 02:06:24;;;;;;;8.97;2.70;;;4.90;99.90;;;;;;5092728;28;20256;-55
2022/01/28 02:08:50;;;;;;;13.03;2.77;;;4.80;99.90;;;;;;5091265;28;20211;-55
2022/01/28 02:11:16;;;;;;;14.93;2.30;;;4.80;99.90;;;;;;5078614;28;20247;-54
2022/01/28 02:13:48;;;;;;;11.43;2.77;;;4.80;99.90;;;;;;5086173;28;20414;-55
2022/01/28 02:16:13;;;;;;;10.67;3.47;;;4.80;99.90;;;;;;5092449;28;20176;-55
2022/01/28 02:18:39;;;;;;;17.70;2.90;;;4.80;99.90;;;;;;5092414;28;20759;-55
2022/01/28 02:21:08;;;;;;;11.50;2.27;;;4.80;4.10;;;;;;5092302;28;20186;-55
2022/01/28 02:23:35;;;;;;;14.60;2.53;;;4.80;1.00;;;;;;5092261;28;20167;-54
2022/01/28 02:26:02;;;;;;;16.43;3.00;;;4.70;99.90;;;;;;5072133;28;20766;-55
2022/01/28 02:28:31;;;;;;;15.00;2.87;;;4.80;99.90;;;;;;5073935;28;20434;-55
2022/01/28 02:30:57;;;;;;;7.10;2.30;;;4.80;94.30;;;;;;5091344;28;20950;-55
2022/01/28 02:33:25;;;;;;;7.37;2.40;;;4.80;99.90;;;;;;5092206;28;20481;-55
2022/01/28 02:35:51;;;;;;;5.23;2.80;;;4.80;46.90;;;;;;5073884;28;20450;-54
2022/01/28 02:38:21;;;;;;;16.90;3.10;;;4.80;49.00;;;;;;5091909;28;20446;-55
2022/01/28 02:40:52;;;;;;;15.03;4.00;;;4.80;99.90;;;;;;5090038;28;20651;-55
2022/01/28 02:45:47;;;;;;;14.03;2.40;;;4.80;99.90;;;;;;5091988;28;20999;-55
2022/01/28 02:48:24;;;;;;;11.93;2.43;;;4.90;1.00;;;;;;5091820;28;20457;-55
2022/01/28 02:51:03;;;;;;;7.07;2.17;;;4.90;1.00;;;;;;5091790;28;20453;-55
2022/01/28 02:53:46;;;;;;;16.00;2.60;;;4.90;1.00;;;;;;5083707;28;20409;-55
2022/01/28 02:56:16;;;;;;;7.60;2.93;;;4.90;18.10;;;;;;5091948;28;20988;-55
2022/01/28 02:58:43;;;;;;;14.20;2.73;;;4.80;1.00;;;;;;5091050;28;20501;-55
2022/01/28 03:01:13;;;;;;;17.43;3.50;;;4.80;99.90;;;;;;5083035;28;21099;-54
2022/01/28 03:03:39;;;;;;;16.17;3.10;;;4.80;99.90;;;;;;5091066;28;20420;-55
2022/01/28 03:06:05;;;;;;;14.83;2.90;;;4.70;74.90;;;;;;5070383;28;20419;-55
2022/01/28 03:08:30;;;;;;;16.53;3.33;;;4.70;99.90;;;;;;5091416;28;20449;-55
2022/01/28 03:16:17;;;;;;;12.90;3.07;;;4.70;99.90;;;;;;5091442;28;20413;-55
2022/01/28 03:18:55;;;;;;;15.33;3.10;;;4.60;99.90;;;;;;5072639;28;20434;-55
2022/01/28 03:21:37;;;;;;;15.53;2.07;;;4.60;99.90;;;;;;5091536;28;20406;-55
2022/01/28 03:24:05;;;;;;;10.83;3.43;;;4.50;99.90;;;;;;5091375;28;20410;-55
2022/01/28 03:26:30;;;;;;;21.03;2.67;;;4.60;18.60;;;;;;5082915;28;20417;-55
2022/01/28 03:28:56;;;;;;;14.80;3.53;;;4.60;1.00;;;;;;5091159;28;20418;-55
2022/01/28 03:31:22;;;;;;;9.30;2.80;;;4.60;99.90;;;;;;5072113;28;20313;-56
2022/01/28 03:33:47;;;;;;;22.90;2.90;;;4.60;1.00;;;;;;5090814;28;20321;-55
2022/01/28 03:36:14;;;;;;;12.00;2.90;;;4.50;1.00;;;;;;5083070;28;20184;-55
2022/01/28 03:38:42;;;;;;;14.67;2.37;;;4.50;1.00;;;;;;5073222;28;20646;-55
2022/01/28 03:41:15;;;;;;;9.57;2.63;;;4.50;99.90;;;;;;5081052;28;20415;-55
2022/01/28 03:43:41;;;;;;;13.33;3.57;;;4.40;99.90;;;;;;5095484;28;20405;-55
2022/01/28 03:46:07;;;;;;;11.53;2.53;;;4.50;99.90;;;;;;5094931;28;20428;-55
2022/01/28 03:48:32;;;;;;;7.27;3.10;;;4.40;99.90;;;;;;5094822;28;20176;-55
2022/01/28 03:50:58;;;;;;;10.23;2.43;;;4.50;1.00;;;;;;5086093;28;20472;-55
2022/01/28 03:53:24;;;;;;;7.77;2.70;;;4.60;99.90;;;;;;5093752;28;20184;-55
2022/01/28 03:55:52;;;;;;;8.83;2.87;;;4.40;1.00;;;;;;5094660;28;20714;-55
2022/01/28 03:58:18;;;;;;;13.27;2.30;;;4.40;1.00;;;;;;5094525;28;20729;-55
2022/01/28 04:00:44;;;;;;;15.57;2.23;;;4.40;1.00;;;;;;5089248;28;20769;-55
2022/01/28 04:03:24;;;;;;;13.77;2.33;;;4.40;1.00;;;;;;5092467;28;20428;-55
2022/01/28 04:11:29;;;;;;;17.30;4.70;;;4.40;99.90;;;;;;5092807;28;20430;-55
2022/01/28 04:13:59;;;;;;;13.00;3.67;;;4.30;99.90;;;;;;5094547;28;20426;-55
2022/01/28 04:16:33;;;;;;;9.87;2.40;;;4.30;1.00;;;;;;5094943;28;20467;-54
2022/01/28 04:19:01;;;;;;;11.00;2.43;;;4.30;1.00;;;;;;5094601;28;20414;-55
2022/01/28 04:21:29;;;;;;;13.13;2.50;;;4.30;1.00;;;;;;5094738;28;20410;-55
2022/01/28 04:23:54;;;;;;;26.00;6.37;;;4.20;1.00;;;;;;5094038;28;20512;-55
2022/01/28 04:26:20;;;;;;;15.80;3.03;;;4.30;1.00;;;;;;5086277;28;20587;-55
2022/01/28 04:28:45;;;;;;;17.20;3.17;;;4.30;1.00;;;;;;5094501;28;20681;-55
2022/01/28 04:31:11;;;;;;;12.63;3.60;;;4.30;99.90;;;;;;5094680;28;20180;-55
2022/01/28 04:33:37;;;;;;;14.87;2.60;;;4.30;99.90;;;;;;5094544;28;20580;-55
2022/01/28 04:36:03;;;;;;;5.70;2.47;;;4.40;99.90;;;;;;5094427;28;20267;-55
2022/01/28 04:41:09;;;;;;;13.90;3.20;;;4.30;17.00;;;;;;5077984;28;20430;-55
2022/01/28 04:44:03;;;;;;;14.17;3.50;;;4.30;99.90;;;;;;5068764;28;20430;-54
2022/01/28 04:46:33;;;;;;;20.17;3.27;;;4.40;1.00;;;;;;5093909;28;20426;-55
2022/01/28 04:49:07;;;;;;;17.23;2.53;;;4.40;1.00;;;;;;5094157;28;20418;-55
2022/01/28 04:57:10;;;;;;;28.90;4.73;;;4.50;99.90;;;;;;5088491;28;20472;-55
2022/01/28 04:59:51;;;;;;;11.30;2.77;;;4.50;99.90;;;;;;5086908;28;20779;-54
2022/01/28 05:02:51;;;;;;;13.47;3.73;;;4.40;99.90;;;;;;5073973;28;20508;-55
2022/01/28 05:08:30;;;;;;;10.73;2.97;;;4.50;99.90;;;;;;5093737;28;20986;-55
2022/01/28 05:26:38;;;;;;;12.20;3.63;;;4.60;99.90;;;;;;5083428;28;20505;-55
2022/01/28 05:29:04;;;;;;;16.83;3.93;;;4.50;99.90;;;;;;5089875;28;20414;-55
2022/01/28 05:31:29;;;;;;;27.40;3.73;;;4.50;99.90;;;;;;5093329;28;20768;-55
2022/01/28 05:33:55;;;;;;;8.80;3.73;;;4.50;99.90;;;;;;5093081;28;20180;-55
2022/01/28 05:36:22;;;;;;;17.40;4.13;;;4.40;99.90;;;;;;5093102;28;20171;-55
2022/01/28 05:38:48;;;;;;;33.50;3.87;;;4.40;99.90;;;;;;5093195;28;20176;-55
2022/01/28 05:41:13;;;;;;;14.53;3.83;;;4.40;1.00;;;;;;5082729;28;20505;-55
2022/01/28 05:43:39;;;;;;;14.03;2.90;;;4.40;1.00;;;;;;5088087;28;20180;-55
2022/01/28 05:46:05;;;;;;;18.03;4.50;;;4.40;67.80;;;;;;5092772;28;20210;-55
2022/01/28 05:48:30;;;;;;;18.90;3.13;;;4.30;1.00;;;;;;5092812;28;20222;-55
2022/01/28 05:50:56;;;;;;;39.60;3.37;;;4.30;99.90;;;;;;5093045;28;20266;-55
2022/01/28 05:53:22;;;;;;;14.00;3.37;;;4.40;30.10;;;;;;5074635;28;20538;-55
2022/01/28 05:55:48;;;;;;;18.17;3.10;;;4.40;99.90;;;;;;5092965;28;20433;-54
2022/01/28 05:58:13;;;;;;;20.10;5.30;;;4.40;45.30;;;;;;5073791;28;20188;-55
2022/01/28 06:00:39;;;;;;;24.30;3.67;;;4.40;1.00;;;;;;5074535;28;20184;-54
2022/01/28 06:03:04;;;;;;;17.60;3.20;;;4.30;1.00;;;;;;5084279;28;20184;-55
2022/01/28 06:05:30;;;;;;;7.23;2.93;;;4.30;99.90;;;;;;5092898;28;20191;-55
2022/01/28 06:08:00;;;;;;;15.43;3.17;;;4.30;22.30;;;;;;5092357;28;20223;-55
2022/01/28 06:10:26;;;;;;;15.03;3.27;;;4.40;31.60;;;;;;5090449;28;20566;-54
2022/01/28 06:12:52;;;;;;;18.30;3.93;;;4.40;1.00;;;;;;5092465;28;20425;-54
2022/01/28 06:15:18;;;;;;;18.97;4.57;;;4.40;1.00;;;;;;5091391;28;20444;-54
2022/01/28 06:17:44;;;;;;;28.30;3.63;;;4.40;1.00;;;;;;5092223;28;20638;-54
2022/01/28 06:20:13;;;;;;;16.53;3.57;;;4.50;1.00;;;;;;5074252;28;20192;-55
2022/01/28 06:22:43;;;;;;;21.23;3.13;;;4.50;1.00;;;;;;5092379;28;20266;-54
2022/01/28 06:25:10;;;;;;;11.20;3.10;;;4.50;1.00;;;;;;5092266;28;20445;-54
2022/01/28 06:27:37;;;;;;;11.73;3.20;;;4.60;99.90;;;;;;5092436;28;20413;-54
2022/01/28 06:30:04;;;;;;;16.63;4.80;;;4.50;99.90;;;;;;5091577;28;20537;-55
2022/01/28 06:32:33;;;;;;;10.70;3.23;;;4.50;1.00;;;;;;5083322;28;20463;-54
2022/01/28 06:35:07;;;;;;;9.70;3.00;;;4.60;99.90;;;;;;5092124;28;20420;-55
2022/01/28 06:37:43;;;;;;;10.13;2.70;;;4.50;1.00;;;;;;5084441;28;20413;-54
2022/01/28 06:40:15;;;;;;;25.63;4.37;;;4.50;99.90;;;;;;5089950;28;20830;-54
2022/01/28 06:42:42;;;;;;;17.30;4.10;;;4.50;1.00;;;;;;5092003;28;20413;-54
2022/01/28 06:45:09;;;;;;;15.53;4.20;;;4.40;1.00;;;;;;5091666;28;20430;-55
2022/01/28 06:47:37;;;;;;;29.90;2.93;;;4.40;1.00;;;;;;5082404;28;20433;-55
2022/01/28 06:50:08;;;;;;;19.13;3.13;;;4.40;1.00;;;;;;5091777;28;20510;-55
2022/01/28 06:52:34;;;;;;;20.70;4.77;;;4.50;1.00;;;;;;5065966;28;20445;-55
2022/01/28 06:55:03;;;;;;;13.97;3.90;;;4.50;99.90;;;;;;5073810;28;20416;-54
2022/01/28 06:57:29;;;;;;;30.13;3.33;;;4.50;1.00;;;;;;5083461;28;20755;-55
2022/01/28 06:59:56;;;;;;;20.57;3.10;;;4.50;1.00;;;;;;5089118;28;20429;-55
2022/01/28 07:02:21;;;;;;;9.23;3.00;;;4.60;99.90;;;;;;5090697;28;20425;-55
2022/01/28 07:04:48;;;;;;;21.97;3.73;;;4.60;99.90;;;;;;5089335;28;20410;-55
2022/01/28 07:07:14;;;;;;;18.40;3.70;;;4.60;99.90;;;;;;5073415;28;20546;-55
2022/01/28 07:09:40;;;;;;;16.90;3.30;;;4.50;99.90;;;;;;5091163;28;20474;-56
2022/01/28 07:12:06;;;;;;;18.83;5.20;;;4.50;1.00;;;;;;5081226;28;20199;-54
2022/01/28 07:14:32;;;;;;;19.80;3.53;;;4.50;1.00;;;;;;5091543;28;20198;-55
2022/01/28 07:16:57;;;;;;;8.90;3.30;;;4.50;1.00;;;;;;5091023;28;20884;-54
2022/01/28 07:19:23;;;;;;;19.97;3.67;;;4.50;1.00;;;;;;5086343;28;20282;-54
2022/01/28 07:21:49;;;;;;;19.47;3.30;;;4.40;32.90;;;;;;5091391;28;20183;-54
2022/01/28 07:24:14;;;;;;;13.43;4.50;;;4.50;78.30;;;;;;5091562;28;20592;-54
2022/01/28 07:26:40;;;;;;;17.20;3.37;;;4.40;16.90;;;;;;5091565;28;20570;-54
2022/01/28 07:29:07;;;;;;;34.17;3.80;;;4.40;93.30;;;;;;5091299;28;20176;-54
2022/01/28 07:31:33;;;;;;;9.77;3.27;;;4.40;99.90;;;;;;5079475;28;20167;-54
2022/01/28 07:33:59;;;;;;;10.57;4.00;;;4.50;76.00;;;;;;5061400;28;20789;-54
2022/01/28 07:36:25;;;;;;;15.40;2.87;;;4.50;99.90;;;;;;5090703;28;20410;-54
2022/01/28 07:38:50;;;;;;;19.20;3.60;;;4.50;1.00;;;;;;5087207;28;20181;-53
2022/01/28 07:41:16;;;;;;;10.77;4.07;;;4.50;1.00;;;;;;5073125;28;20229;-56
2022/01/28 07:43:42;;;;;;;18.00;2.60;;;4.50;99.90;;;;;;5088455;28;20202;-55
2022/01/28 07:46:08;;;;;;;17.90;3.33;;;4.50;99.90;;;;;;5062442;28;20971;-56
2022/01/28 07:48:33;;;;;;;10.93;3.73;;;4.50;99.90;;;;;;5091208;28;20698;-55
2022/01/28 07:50:59;;;;;;;14.63;4.70;;;4.50;99.90;;;;;;5089236;28;20477;-57
2022/01/28 07:53:25;;;;;;;16.97;3.03;;;4.50;99.90;;;;;;5082175;28;20180;-56
2022/01/28 07:55:50;;;;;;;29.50;4.03;;;4.40;48.90;;;;;;5079897;28;20180;-55
2022/01/28 07:58:16;;;;;;;10.97;4.43;;;4.40;99.90;;;;;;5028643;28;20703;-55
2022/01/28 08:00:42;;;;;;;16.97;3.30;;;4.50;99.90;;;;;;5026032;28;20536;-55
2022/01/28 08:03:08;;;;;;;19.93;4.07;;;4.50;99.90;;;;;;5027781;28;20184;-54
2022/01/28 08:05:34;;;;;;;21.73;4.03;;;4.50;99.90;;;;;;5030599;28;20432;-57
2022/01/28 08:08:04;;;;;;;24.73;4.87;;;4.50;49.60;;;;;;5030638;28;20460;-55
2022/01/28 08:10:30;;;;;;;21.47;3.77;;;4.60;1.00;;;;;;5028580;28;20472;-54
2022/01/28 08:12:56;;;;;;;18.23;3.43;;;4.60;1.00;;;;;;5029101;28;20950;-53
2022/01/28 08:15:22;;;;;;;8.33;3.03;;;4.70;1.00;;;;;;5029435;28;20428;-54
2022/01/28 08:17:49;;;;;;;16.70;3.30;;;4.70;1.00;;;;;;5029285;28;20612;-54
2022/01/28 08:20:15;;;;;;;12.90;3.97;;;4.80;99.90;;;;;;5028828;28;20437;-54
2022/01/28 08:22:52;;;;;;;20.60;3.90;;;4.80;99.90;;;;;;5029532;28;20432;-54
2022/01/28 08:25:21;;;;;;;16.40;5.00;;;4.80;99.90;;;;;;5030190;28;20499;-54
2022/01/28 08:27:47;;;;;;;30.67;4.23;;;4.90;99.90;;;;;;5029655;28;20767;-53
2022/01/28 08:30:15;;;;;;;21.40;3.30;;;5.00;99.90;;;;;;5034129;28;20455;-56
2022/01/28 08:32:41;;;;;;;13.80;2.73;;;5.00;99.90;;;;;;5034930;28;20444;-54
2022/01/28 08:35:07;;;;;;;7.43;2.83;;;4.90;99.90;;;;;;5034849;28;20847;-54
2022/01/28 08:37:33;;;;;;;22.97;5.03;;;4.90;99.90;;;;;;5034933;28;20523;-55
2022/01/28 08:39:59;;;;;;;13.53;3.63;;;5.00;99.90;;;;;;5034738;28;20503;-54
2022/01/28 08:42:27;;;;;;;14.10;3.57;;;5.00;99.90;;;;;;5034346;28;20196;-56
2022/01/28 08:44:52;;;;;;;16.27;3.87;;;5.10;99.90;;;;;;5034644;28;20425;-56
2022/01/28 08:47:18;;;;;;;19.20;3.57;;;5.00;99.90;;;;;;5032991;28;20432;-55
2022/01/28 08:49:45;;;;;;;19.37;3.40;;;5.00;99.90;;;;;;5033337;28;20714;-55
2022/01/28 08:52:11;;;;;;;20.63;5.03;;;5.00;99.90;;;;;;5025972;28;20193;-54
2022/01/28 08:54:36;;;;;;;25.73;4.43;;;5.10;99.90;;;;;;5019266;28;20428;-54
2022/01/28 08:57:02;;;;;;;21.63;3.67;;;5.00;53.00;;;;;;5028853;28;20190;-55
2022/01/28 08:59:27;;;;;;;14.53;3.87;;;5.00;99.90;;;;;;5032224;28;20194;-55
2022/01/28 09:01:53;;;;;;;19.43;3.90;;;4.90;99.90;;;;;;5026712;28;20193;-55
2022/01/28 09:04:18;;;;;;;21.00;3.43;;;4.90;99.90;;;;;;5024595;28;20207;-54
2022/01/28 09:06:45;;;;;;;14.70;3.30;;;4.90;99.90;;;;;;5032859;28;20663;-54
2022/01/28 09:09:11;;;;;;;13.57;3.83;;;5.00;99.90;;;;;;5032583;28;20739;-54
2022/01/28 09:14:13;;;;;;;21.40;3.60;;;5.10;18.10;;;;;;5033101;28;20208;-54
2022/01/28 09:16:38;;;;;;;20.33;4.10;;;5.20;12.20;;;;;;5032764;28;20519;-56
2022/01/28 09:19:04;;;;;;;19.90;3.43;;;5.20;1.00;;;;;;5032607;28;20834;-54
2022/01/28 09:21:30;;;;;;;17.87;4.10;;;5.10;13.50;;;;;;5032233;28;20658;-54
2022/01/28 09:23:55;;;;;;;20.60;3.63;;;5.20;99.90;;;;;;5022835;28;20655;-55
2022/01/28 09:26:21;;;;;;;11.20;3.10;;;5.20;99.90;;;;;;5031913;28;20620;-55
2022/01/28 09:28:46;;;;;;;27.40;3.90;;;5.10;99.90;;;;;;5032620;28;20634;-55
2022/01/28 09:31:12;;;;;;;24.13;3.43;;;5.60;99.90;;;;;;5022717;28;20313;-56
2022/01/28 09:33:38;;;;;;;20.00;3.47;;;5.40;99.90;;;;;;5029851;28;20835;-55
2022/01/28 09:36:06;;;;;;;8.63;3.30;;;5.30;99.90;;;;;;5028234;28;20820;-54
2022/01/28 09:38:32;;;;;;;23.17;4.93;;;5.20;99.90;;;;;;5025293;28;20210;-57
2022/01/28 09:41:00;;;;;;;20.27;3.30;;;5.20;1.00;;;;;;5028242;28;20486;-56
2022/01/28 09:43:26;;;;;;;13.00;5.40;;;5.20;99.90;;;;;;5023738;28;20721;-59
2022/01/28 09:45:52;;;;;;;15.43;3.17;;;5.20;99.90;;;;;;5031950;28;20428;-57
2022/01/28 09:48:19;;;;;;;16.03;3.27;;;5.30;1.00;;;;;;5025875;28;20551;-55
2022/01/28 09:50:46;;;;;;;22.93;4.80;;;5.40;99.90;;;;;;5023319;28;20208;-55
2022/01/28 09:53:14;;;;;;;24.73;4.93;;;5.60;99.90;;;;;;5029798;28;20427;-56
2022/01/28 09:55:41;;;;;;;12.13;3.23;;;5.60;1.00;;;;;;5027799;28;20424;-56
2022/01/28 09:58:07;;;;;;;13.63;4.70;;;5.60;1.00;;;;;;5026858;28;20531;-62
2022/01/28 10:00:33;;;;;;;12.73;3.03;;;5.70;1.00;;;;;;5028769;28;20856;-60
2022/01/28 10:03:10;;;;;;;28.00;4.57;;;5.80;1.00;;;;;;5022696;28;20198;-60
2022/01/28 10:05:39;;;;;;;25.10;4.23;;;5.90;1.00;;;;;;5021018;28;20447;-61
2022/01/28 10:08:25;;;;;;;28.43;3.80;;;6.00;99.90;;;;;;5017542;28;20507;-60
2022/01/28 10:11:04;;;;;;;14.23;3.67;;;6.10;99.90;;;;;;5025603;28;20556;-61
2022/01/28 10:13:53;;;;;;;26.20;4.53;;;6.10;8.10;;;;;;5024420;28;20415;-63
2022/01/28 10:16:28;;;;;;;15.53;4.53;;;6.00;99.90;;;;;;5023652;28;20431;-61
2022/01/28 10:18:56;;;;;;;17.40;4.87;;;6.00;99.90;;;;;;5022301;28;20416;-60
2022/01/28 10:21:40;;;;;;;18.63;5.60;;;5.80;99.90;;;;;;5027258;28;20511;-60
2022/01/28 10:24:25;;;;;;;21.93;4.13;;;5.90;99.90;;;;;;5023486;28;20421;-65
2022/01/28 10:26:59;;;;;;;19.40;4.40;;;6.10;99.90;;;;;;5020352;28;20906;-61
2022/01/28 10:29:30;;;;;;;19.00;4.50;;;6.30;1.00;;;;;;5029180;28;20464;-60
2022/01/28 10:32:06;;;;;;;18.77;4.00;;;6.60;1.00;;;;;;5026719;28;20531;-65
2022/01/28 10:34:37;;;;;;;17.57;4.23;;;6.90;99.90;;;;;;5022616;28;20501;-61
2022/01/28 10:37:20;;;;;;;15.60;3.40;;;6.90;92.10;;;;;;5030434;28;20416;-61
2022/01/28 10:40:22;;;;;;;25.30;4.33;;;6.90;99.90;;;;;;5028919;28;20435;-61
2022/01/28 10:42:52;;;;;;;17.23;4.63;;;6.90;79.70;;;;;;4995267;28;20776;-61
2022/01/28 10:45:20;;;;;;;31.37;4.13;;;6.90;89.40;;;;;;5028684;28;20534;-61
2022/01/28 10:47:56;;;;;;;21.00;5.30;;;6.80;92.80;;;;;;5029759;28;20413;-61
2022/01/28 10:50:31;;;;;;;30.07;4.30;;;7.00;78.60;;;;;;5029940;28;20547;-62
2022/01/28 10:53:12;;;;;;;20.87;5.43;;;7.10;99.90;;;;;;5029533;28;20452;-62
2022/01/28 10:55:50;;;;;;;17.43;3.77;;;7.00;99.90;;;;;;5023122;28;20811;-62
2022/01/28 10:58:17;;;;;;;20.30;3.70;;;7.00;99.90;;;;;;5030393;28;20416;-62
2022/01/28 11:00:46;;;;;;;16.80;3.30;;;7.00;99.90;;;;;;5030328;28;20949;-62
2022/01/28 11:03:14;;;;;;;29.30;4.30;;;7.00;99.90;;;;;;5030535;28;20435;-62
2022/01/28 11:05:40;;;;;;;31.70;5.63;;;7.10;99.90;;;;;;5030518;28;20478;-62
2022/01/28 11:08:08;;;;;;;23.50;4.80;;;7.20;99.90;;;;;;5030098;28;20502;-62
2022/01/28 11:10:35;;;;;;;25.40;4.90;;;7.10;99.90;;;;;;5029748;28;21000;-62
2022/01/28 11:13:01;;;;;;;26.90;4.63;;;6.90;99.90;;;;;;5029960;28;20440;-62
2022/01/28 11:15:28;;;;;;;19.73;4.70;;;6.90;99.90;;;;;;5030038;28;20252;-62
2022/01/28 11:17:55;;;;;;;23.37;3.90;;;6.70;99.90;;;;;;5030043;28;20416;-62
2022/01/28 11:20:29;;;;;;;19.33;4.50;;;6.70;99.90;;;;;;5030205;28;20851;-62
2022/01/28 11:23:07;;;;;;;20.33;4.70;;;6.70;99.90;;;;;;5030059;28;20478;-62
2022/01/28 11:25:44;;;;;;;25.47;4.30;;;6.70;99.90;;;;;;5022468;28;20498;-62
2022/01/28 11:28:12;;;;;;;28.50;4.60;;;6.60;99.90;;;;;;5030120;28;20452;-62
2022/01/28 11:30:51;;;;;;;11.10;3.80;;;6.60;99.90;;;;;;5029874;28;20468;-62
2022/01/28 11:33:18;;;;;;;16.93;3.63;;;6.60;99.90;;;;;;5030277;28;20546;-62
2022/01/28 11:35:49;;;;;;;23.87;4.70;;;6.40;99.90;;;;;;5030077;28;20420;-62
2022/01/28 11:38:29;;;;;;;20.00;4.70;;;6.50;99.90;;;;;;5029987;28;20507;-62
2022/01/28 11:40:57;;;;;;;12.90;3.50;;;6.50;99.90;;;;;;5030155;28;20881;-62
2022/01/28 11:43:29;;;;;;;20.83;3.23;;;6.50;99.90;;;;;;5030038;28;20439;-62
2022/01/28 11:46:05;;;;;;;14.17;3.27;;;6.50;99.90;;;;;;5029593;28;20420;-62
2022/01/28 11:48:53;;;;;;;24.27;4.30;;;6.50;99.90;;;;;;5022021;28;20794;-62
2022/01/28 11:51:39;;;;;;;21.23;5.23;;;6.60;99.90;;;;;;5029653;28;20462;-62
2022/01/28 11:54:12;;;;;;;10.90;4.13;;;6.70;99.90;;;;;;5029921;28;20469;-62
2022/01/28 11:56:58;;;;;;;14.60;3.83;;;6.60;99.90;;;;;;5029865;28;20413;-61
2022/01/28 11:59:29;;;;;;;35.27;3.93;;;6.70;99.90;;;;;;5008372;28;20432;-62
2022/01/28 12:01:54;;;;;;;27.00;4.67;;;6.70;99.90;;;;;;5029734;28;20500;-62
2022/01/28 12:04:27;;;;;;;18.07;4.23;;;6.70;99.90;;;;;;5033641;28;20420;-62
2022/01/28 12:07:04;;;;;;;14.20;3.80;;;6.70;99.90;;;;;;5033686;28;20269;-62
2022/01/28 12:09:32;;;;;;;18.40;4.63;;;6.70;99.90;;;;;;5025412;28;20533;-62
2022/01/28 12:11:59;;;;;;;14.87;3.87;;;6.80;99.90;;;;;;5033462;28;21009;-62
2022/01/28 12:14:54;;;;;;;28.37;5.30;;;6.80;99.90;;;;;;5033533;28;20426;-62
2022/01/28 12:17:31;;;;;;;20.03;3.83;;;6.80;99.90;;;;;;5033393;28;20776;-62
2022/01/28 12:20:15;;;;;;;28.70;4.40;;;6.80;99.90;;;;;;5033245;28;20900;-62
2022/01/28 12:23:23;;;;;;;21.00;3.80;;;6.80;99.90;;;;;;5026507;28;20915;-61
2022/01/28 12:25:53;;;;;;;17.73;5.00;;;6.70;99.90;;;;;;5027907;28;20934;-62
2022/01/28 12:28:33;;;;;;;25.57;5.03;;;6.80;99.90;;;;;;5033299;28;20801;-61
2022/01/28 12:31:17;;;;;;;9.33;3.30;;;6.90;99.90;;;;;;5033013;28;20563;-62
2022/01/28 12:33:46;;;;;;;15.47;3.23;;;6.90;99.90;;;;;;5027130;28;20442;-62
2022/01/28 12:36:13;;;;;;;17.07;5.10;;;6.90;99.90;;;;;;5032971;28;20515;-62
2022/01/28 12:38:44;;;;;;;28.00;4.20;;;6.80;99.90;;;;;;5033034;28;20451;-62
2022/01/28 12:41:14;;;;;;;17.63;3.13;;;6.70;99.90;;;;;;5032968;28;20416;-61
2022/01/28 12:43:40;;;;;;;24.37;4.93;;;6.70;99.90;;;;;;5033040;28;20416;-61
2022/01/28 12:46:15;;;;;;;18.20;3.73;;;6.70;99.90;;;;;;5032663;28;20438;-62
2022/01/28 12:48:47;;;;;;;20.03;4.00;;;6.70;99.90;;;;;;5032777;28;20213;-61
2022/01/28 12:51:14;;;;;;;25.90;5.13;;;6.80;99.90;;;;;;5032504;28;20533;-62
2022/01/28 12:53:45;;;;;;;28.37;3.70;;;6.80;99.90;;;;;;5032246;28;20815;-62
2022/01/28 12:56:13;;;;;;;22.27;4.57;;;6.80;99.90;;;;;;5032682;28;20502;-62
2022/01/28 12:58:51;;;;;;;14.70;3.90;;;6.90;99.90;;;;;;5032687;28;20423;-62
2022/01/28 13:01:19;;;;;;;22.53;4.33;;;6.90;99.90;;;;;;5030990;28;20424;-63
2022/01/28 13:03:54;;;;;;;20.10;3.27;;;7.00;99.90;;;;;;5032648;28;20427;-61
2022/01/28 13:09:00;;;;;;;17.80;3.90;;;7.00;1.00;;;;;;5031761;28;20452;-62
2022/01/28 13:11:27;;;;;;;17.70;2.90;;;7.00;1.00;;;;;;5031355;28;20474;-61
2022/01/28 13:13:57;;;;;;;23.10;5.23;;;7.00;1.00;;;;;;5031920;28;20915;-62
2022/01/28 13:16:43;;;;;;;28.20;3.97;;;6.90;1.00;;;;;;5032186;28;20444;-62
2022/01/28 13:19:11;;;;;;;17.73;4.63;;;6.90;1.00;;;;;;5032210;28;20511;-62
2022/01/28 13:21:38;;;;;;;24.87;4.13;;;6.90;1.00;;;;;;5032353;28;20420;-62
2022/01/28 13:24:08;;;;;;;26.40;4.73;;;6.90;1.00;;;;;;5032055;28;20423;-62
2022/01/28 13:26:36;;;;;;;10.67;3.83;;;7.00;1.00;;;;;;5024846;28;20416;-62
2022/01/28 13:29:10;;;;;;;20.67;5.30;;;7.00;1.00;;;;;;5031922;28;20413;-61
2022/01/28 13:31:36;;;;;;;15.77;4.03;;;7.00;1.00;;;;;;5024206;28;20429;-62
2022/01/28 13:34:05;;;;;;;20.33;4.90;;;7.30;1.00;;;;;;5031740;28;20787;-61
2022/01/28 13:36:49;;;;;;;8.37;3.10;;;7.50;1.00;;;;;;5023229;28;20506;-62
2022/01/28 13:39:17;;;;;;;15.70;3.47;;;7.70;1.00;;;;;;5031773;28;20433;-62
2022/01/28 13:41:43;;;;;;;17.20;4.70;;;7.70;1.00;;;;;;5031733;28;20524;-62
2022/01/28 13:44:25;;;;;;;19.13;3.70;;;7.60;1.00;;;;;;5030985;28;20417;-62
2022/01/28 13:47:10;;;;;;;14.80;3.30;;;7.60;1.00;;;;;;5030391;28;20482;-62
2022/01/28 13:49:37;;;;;;;14.47;3.13;;;7.50;1.00;;;;;;5024027;28;20567;-62
2022/01/28 13:52:28;;;;;;;16.00;3.37;;;7.50;1.00;;;;;;5030933;28;20474;-62
2022/01/28 13:54:53;;;;;;;11.23;3.50;;;7.40;1.00;;;;;;5026161;28;20416;-62
2022/01/28 13:57:26;;;;;;;34.07;4.30;;;7.30;1.00;;;;;;5030638;28;20836;-61
2022/01/28 14:00:00;;;;;;;17.70;3.97;;;7.20;1.00;;;;;;5030395;28;20235;-62
2022/01/28 14:02:26;;;;;;;15.03;3.40;;;7.10;1.00;;;;;;5029239;28;20475;-62
2022/01/28 14:04:53;;;;;;;27.00;5.60;;;7.10;1.00;;;;;;5030108;28;20444;-62
2022/01/28 14:07:22;;;;;;;16.80;3.00;;;7.20;1.00;;;;;;5028295;28;20190;-60
2022/01/28 14:09:49;;;;;;;20.70;4.60;;;7.40;1.00;;;;;;5019567;28;20477;-61
2022/01/28 14:12:56;;;;;;;14.07;2.80;;;7.30;1.00;;;;;;5023768;28;20462;-67
2022/01/28 14:15:32;;;;;;;15.23;4.30;;;7.00;1.00;;;;;;5029116;28;20456;-66
2022/01/28 14:17:58;;;;;;;12.03;3.97;;;6.90;1.00;;;;;;5031321;28;20416;-60
2022/01/28 14:20:24;;;;;;;20.47;2.70;;;6.90;1.00;;;;;;5029498;28;20433;-62
2022/01/28 14:22:50;;;;;;;16.50;3.13;;;7.00;1.00;;;;;;5026367;28;20432;-61